map of CZS home
CZS - Airport
Location
City:  Cruzeiro do Sul, Acre, Brazil
ICAO:SBCZ
IATA:CZS

Details
Type:Airport (Aerodrome, Airfield)
Use:International (customs port of entry)
Latitude:736'00"S (-7.599905)
Longitude:7246'10"W (-72.769488)
Datum:WGS 1984
Elevation:637 ft (194 m)
Variation:6.14W (WMM2015 magnetic declination)
-0.17 annual change
Runways:1
Longest:7874 × 148 ft (2400 × 45 m), paved

Time
Time Zone:UTC-5
Local Time:

Weather
METAR:SBCZ 272200Z 04005KT 9999 VCSH SCT025 FEW030TCU SCT100 28/24 Q1 007
TAF:SBCZ 272200Z 2800/2824 00000KT 9999 FEW010 TN20/2808Z TX29/2818Z
BECMG 2808/2810 15005KT BKN010
BECMG 2815/2817 12005KT BKN030
BECMG 2821/2 823 09003KT FEW020
RMK PEO

Related Locations
Nearby:
Farthest:VCS: 12345 mi / 19868 km
Con Son Island [Con Dao Airport (Co Ong Airport)], Con Dao Archipelago, VN

Find:

   beyond  
but within

Other Information
Maps:
NOTAMs:
Links:
Sources:

  
flag of Brazil
flag of Acre
  

Sectional Chart

Flight Planning
at skyvector.com

Satellite Image

Google Maps Satellite view

 

Copyright © 2004-2017 Karl L. Swartz. All rights reserved.
The Great Circle Mapper name and logo are trademarks of the Great Circle Mapper.
All other trademarks mentioned herein belong to their respective owners.
Please see credits for attibutions and further copyright information.

  Follow gcmap on Facebook Follow gcmap on Twitter Follow gcmap on Google+ GCmap on LinkedIn

hCard Microformat

Geo Microformat